createdAt,value
2022-12-13T00:00:47.873Z,-2.85
2022-12-13T00:03:30.125Z,-2.91
2022-12-13T00:06:12.272Z,-2.90
2022-12-13T00:09:04.315Z,-2.95
2022-12-13T00:11:54.798Z,-2.96
2022-12-13T00:14:40.921Z,-3.08
2022-12-13T00:17:27.857Z,-3.13
2022-12-13T00:20:11.803Z,-3.03
2022-12-13T00:26:03.336Z,-3.11
2022-12-13T00:28:51.062Z,-3.23
2022-12-13T00:34:51.944Z,-3.22
2022-12-13T00:37:34.880Z,-3.16
2022-12-13T00:40:32.391Z,-3.24
2022-12-13T00:43:16.715Z,-3.25
2022-12-13T00:46:08.070Z,-3.22
2022-12-13T00:48:55.422Z,-3.31
2022-12-13T00:51:43.692Z,-3.27
2022-12-13T00:54:20.079Z,-3.17
2022-12-13T00:56:58.287Z,-3.26
2022-12-13T00:59:43.946Z,-3.22
2022-12-13T01:02:37.700Z,-3.21
2022-12-13T01:05:13.571Z,-3.10
2022-12-13T01:07:55.365Z,-3.19
2022-12-13T01:10:49.673Z,-3.23
2022-12-13T01:13:40.629Z,-3.31
2022-12-13T01:16:34.629Z,-3.21
2022-12-13T01:19:23.816Z,-3.25
2022-12-13T01:22:19.757Z,-3.28
2022-12-13T01:25:15.049Z,-3.22
2022-12-13T01:27:56.786Z,-3.24
2022-12-13T01:30:43.644Z,-3.45
2022-12-13T01:33:37.595Z,-3.43
2022-12-13T01:36:30.779Z,-3.41
2022-12-13T01:39:17.568Z,-3.52
2022-12-13T01:42:06.752Z,-3.47
2022-12-13T01:45:33.830Z,-3.32
2022-12-13T01:48:17.867Z,-3.39
2022-12-13T01:51:17.518Z,-3.35
2022-12-13T01:54:12.966Z,-3.32
2022-12-13T01:57:17.204Z,-3.34
2022-12-13T01:59:58.976Z,-3.46
2022-12-13T02:02:42.942Z,-3.32
2022-12-13T02:05:39.815Z,-3.49
2022-12-13T02:08:28.042Z,-3.43
2022-12-13T02:11:05.300Z,-3.41
2022-12-13T02:13:57.166Z,-3.23
2022-12-13T02:16:53.901Z,-3.23
2022-12-13T02:20:23.045Z,-3.20
2022-12-13T02:23:32.613Z,-3.24
2022-12-13T02:26:29.755Z,-3.40
2022-12-13T02:29:35.078Z,-3.54
2022-12-13T02:32:34.879Z,-3.72
2022-12-13T02:35:18.967Z,-3.85
2022-12-13T02:38:35.734Z,-3.95
2022-12-13T02:41:41.445Z,-4.05
2022-12-13T02:44:26.771Z,-4.08
2022-12-13T02:47:12.615Z,-4.22
2022-12-13T02:50:04.301Z,-4.31
2022-12-13T02:52:52.542Z,-4.34
2022-12-13T02:55:59.139Z,-4.41
2022-12-13T02:58:42.905Z,-4.53
2022-12-13T03:01:46.556Z,-4.72
2022-12-13T03:05:08.784Z,-4.74
2022-12-13T03:08:04.018Z,-4.78
2022-12-13T03:10:53.504Z,-4.78
2022-12-13T03:13:51.273Z,-4.84
2022-12-13T03:16:50.145Z,-4.91
2022-12-13T03:19:40.825Z,-4.94
2022-12-13T03:22:56.360Z,-5.05
2022-12-13T03:25:48.712Z,-5.09
2022-12-13T03:28:34.715Z,-5.09
2022-12-13T03:31:22.449Z,-5.15
2022-12-13T03:34:22.789Z,-5.19
2022-12-13T03:37:07.014Z,-5.21
2022-12-13T03:40:04.852Z,-5.21
2022-12-13T03:43:09.607Z,-5.29
2022-12-13T03:45:53.578Z,-5.43
2022-12-13T03:48:40.435Z,-5.43
2022-12-13T03:51:28.781Z,-5.57
2022-12-13T03:54:17.399Z,-5.55
2022-12-13T03:57:01.788Z,-5.43
2022-12-13T03:59:41.684Z,-5.46
2022-12-13T04:02:34.792Z,-5.49
2022-12-13T04:05:19.355Z,-5.49
2022-12-13T04:08:01.135Z,-5.50
2022-12-13T04:10:53.208Z,-5.48
2022-12-13T04:13:49.184Z,-5.58
2022-12-13T04:16:29.403Z,-5.62
2022-12-13T04:19:23.805Z,-5.66
2022-12-13T04:22:12.286Z,-5.66
2022-12-13T04:24:51.298Z,-5.76
2022-12-13T04:27:38.189Z,-5.75
2022-12-13T04:30:28.584Z,-5.77
2022-12-13T04:33:06.830Z,-5.87
2022-12-13T04:36:07.118Z,-5.90
2022-12-13T04:38:51.744Z,-5.95
2022-12-13T04:41:58.251Z,-5.92
2022-12-13T04:44:46.266Z,-5.93
2022-12-13T04:47:32.095Z,-5.99
2022-12-13T04:50:16.520Z,-5.95
2022-12-13T04:53:04.212Z,-6.06
2022-12-13T04:55:48.338Z,-6.10
2022-12-13T04:58:29.805Z,-6.16
2022-12-13T05:01:11.295Z,-6.13
2022-12-13T05:04:03.763Z,-6.10
2022-12-13T05:06:42.758Z,-6.16
2022-12-13T05:09:46.202Z,-6.13
2022-12-13T05:12:26.706Z,-6.24
2022-12-13T05:15:04.980Z,-6.31
2022-12-13T05:17:51.098Z,-6.24
2022-12-13T05:20:40.751Z,-6.37
2022-12-13T05:23:28.641Z,-6.47
2022-12-13T05:26:13.543Z,-6.45
2022-12-13T05:29:11.842Z,-6.47
2022-12-13T05:31:51.538Z,-6.47
2022-12-13T05:34:38.321Z,-6.54
2022-12-13T05:37:16.750Z,-6.59
2022-12-13T05:40:04.720Z,-6.60
2022-12-13T05:42:51.602Z,-6.58
2022-12-13T05:45:50.354Z,-6.55
2022-12-13T05:48:50.841Z,-6.52
2022-12-13T05:51:37.865Z,-6.53
2022-12-13T05:54:29.748Z,-6.58
2022-12-13T05:57:07.642Z,-6.60
2022-12-13T05:59:51.011Z,-6.60
2022-12-13T06:02:38.225Z,-6.65
2022-12-13T06:05:20.171Z,-6.68
2022-12-13T06:08:24.629Z,-6.75
2022-12-13T06:11:31.152Z,-6.87
2022-12-13T06:14:23.412Z,-6.87
2022-12-13T06:17:09.823Z,-6.90
2022-12-13T06:20:01.274Z,-6.90
2022-12-13T06:22:48.721Z,-6.94
2022-12-13T06:25:46.306Z,-7.00
2022-12-13T06:28:31.089Z,-7.11
2022-12-13T06:31:16.931Z,-7.09
2022-12-13T06:34:13.961Z,-7.07
2022-12-13T06:37:05.431Z,-7.06
2022-12-13T06:42:51.130Z,-7.12
2022-12-13T06:45:44.212Z,-7.12
2022-12-13T06:48:31.031Z,-7.07
2022-12-13T06:51:33.041Z,-7.08
2022-12-13T06:54:24.152Z,-7.12
2022-12-13T06:57:19.163Z,-6.93
2022-12-13T07:00:08.355Z,-6.86
2022-12-13T07:02:52.638Z,-6.71
2022-12-13T07:05:46.474Z,-6.63
2022-12-13T07:08:37.232Z,-6.50
2022-12-13T07:11:33.262Z,-6.47
2022-12-13T07:14:15.742Z,-6.42
2022-12-13T07:17:05.308Z,-6.32
2022-12-13T07:19:50.519Z,-6.20
2022-12-13T07:22:34.436Z,-6.04
2022-12-13T07:25:35.771Z,-6.01
2022-12-13T07:28:18.786Z,-5.90
2022-12-13T07:31:13.605Z,-5.84
2022-12-13T07:33:54.392Z,-5.74
2022-12-13T07:36:49.736Z,-5.65
2022-12-13T07:39:35.283Z,-5.53
2022-12-13T07:42:17.540Z,-5.39
2022-12-13T07:45:19.587Z,-5.34
2022-12-13T07:48:00.226Z,-5.28
2022-12-13T07:50:54.751Z,-5.19
2022-12-13T07:53:37.496Z,-5.06
2022-12-13T07:56:16.331Z,-4.97
2022-12-13T07:59:06.603Z,-4.76
2022-12-13T08:01:52.482Z,-4.73
2022-12-13T08:04:37.833Z,-4.65
2022-12-13T08:07:25.788Z,-4.51
2022-12-13T08:10:11.469Z,-4.31
2022-12-13T08:15:53.821Z,-4.20
2022-12-13T08:18:27.294Z,-4.13
2022-12-13T08:21:37.260Z,-3.77
2022-12-13T08:24:17.315Z,-3.69
2022-12-13T08:27:02.056Z,-3.78
2022-12-13T08:29:36.837Z,-3.69
2022-12-13T08:32:15.989Z,-3.60
2022-12-13T08:34:54.646Z,-3.44
2022-12-13T08:37:38.294Z,-3.41
2022-12-13T08:40:16.750Z,-3.28
2022-12-13T08:43:00.739Z,-3.16
2022-12-13T08:45:49.768Z,-3.04
2022-12-13T08:48:54.327Z,-3.12
2022-12-13T08:51:44.475Z,-3.03
2022-12-13T08:54:37.207Z,-2.88
2022-12-13T08:57:15.946Z,-2.84
2022-12-13T09:00:24.656Z,-2.59
2022-12-13T09:03:14.310Z,-2.42
2022-12-13T09:05:56.178Z,-2.48
2022-12-13T09:08:43.324Z,-2.50
2022-12-13T09:11:40.310Z,-2.49
2022-12-13T09:14:45.650Z,-2.19
2022-12-13T09:17:52.543Z,-2.16
2022-12-13T09:20:43.035Z,-2.04
2022-12-13T09:23:35.470Z,-2.00
2022-12-13T09:26:25.574Z,-1.91
2022-12-13T09:29:14.848Z,-1.86
2022-12-13T09:32:04.066Z,-1.84
2022-12-13T09:34:46.089Z,-1.78
2022-12-13T09:37:27.742Z,-1.75
2022-12-13T09:40:26.053Z,-1.63
2022-12-13T09:43:22.036Z,-1.57
2022-12-13T09:46:23.036Z,-1.46
2022-12-13T09:49:13.798Z,-1.36
2022-12-13T09:52:10.958Z,-1.34
2022-12-13T09:54:53.657Z,-1.42
2022-12-13T09:57:44.044Z,-1.20
2022-12-13T10:00:28.470Z,-1.18
2022-12-13T10:03:15.304Z,-1.14
2022-12-13T10:06:06.701Z,-1.13
2022-12-13T10:09:02.857Z,-1.00
2022-12-13T10:11:53.785Z,-1.01
2022-12-13T10:15:04.051Z,-0.78
2022-12-13T10:17:55.169Z,-0.76
2022-12-13T10:20:40.266Z,-0.73
2022-12-13T10:23:47.042Z,-0.73
2022-12-13T10:26:54.368Z,-0.66
2022-12-13T10:29:40.617Z,-0.58
2022-12-13T10:32:37.653Z,-0.86
2022-12-13T10:35:53.485Z,-0.73
2022-12-13T10:38:45.728Z,-0.71
2022-12-13T10:41:46.493Z,-0.45
2022-12-13T10:44:41.956Z,-0.35
2022-12-13T10:47:32.370Z,-0.41
2022-12-13T10:50:30.879Z,-0.31
2022-12-13T10:53:07.968Z,-0.16
2022-12-13T10:55:49.752Z,-0.07
2022-12-13T10:58:43.342Z,-0.06
2022-12-13T11:01:34.689Z,-0.05
2022-12-13T11:04:28.467Z,0.01
2022-12-13T11:07:26.858Z,-0.12
2022-12-13T11:10:37.120Z,0.08
2022-12-13T11:13:39.535Z,0.01
2022-12-13T11:16:27.199Z,0.09
2022-12-13T11:19:10.951Z,0.16
2022-12-13T11:21:55.706Z,0.39
2022-12-13T11:24:44.758Z,0.46
2022-12-13T11:27:39.424Z,0.55
2022-12-13T11:30:52.259Z,0.55
2022-12-13T11:34:02.078Z,0.59
2022-12-13T11:36:56.921Z,0.69
2022-12-13T11:40:01.403Z,0.79
2022-12-13T11:42:55.911Z,0.85
2022-12-13T11:45:37.862Z,0.81
2022-12-13T11:48:27.961Z,0.77
2022-12-13T11:51:11.421Z,0.74
2022-12-13T11:54:27.807Z,0.81
2022-12-13T11:57:22.622Z,0.92
2022-12-13T12:00:34.519Z,0.89
2022-12-13T12:03:50.431Z,0.94
2022-12-13T12:06:45.406Z,0.97
2022-12-13T12:09:32.258Z,1.11
2022-12-13T12:12:22.998Z,1.14
2022-12-13T12:15:33.373Z,1.16
2022-12-13T12:18:31.149Z,1.15
2022-12-13T12:21:21.978Z,1.02
2022-12-13T12:24:36.369Z,1.13
2022-12-13T12:27:35.287Z,1.13
2022-12-13T12:30:22.489Z,1.15
2022-12-13T12:34:00.326Z,1.28
2022-12-13T12:36:46.855Z,0.84
2022-12-13T12:39:39.784Z,0.98
2022-12-13T12:43:16.444Z,1.13
2022-12-13T12:47:31.101Z,1.07
2022-12-13T12:50:30.548Z,1.02
2022-12-13T12:53:37.130Z,1.19
2022-12-13T12:56:52.870Z,1.13
2022-12-13T12:59:58.125Z,1.15
2022-12-13T13:03:26.512Z,1.28
2022-12-13T13:06:25.587Z,1.26
2022-12-13T13:09:25.798Z,1.46
2022-12-13T13:12:29.052Z,1.48
2022-12-13T13:15:57.590Z,1.43
2022-12-13T13:18:54.223Z,1.34
2022-12-13T13:22:31.146Z,1.45
2022-12-13T13:25:16.115Z,1.41
2022-12-13T13:28:08.845Z,1.36
2022-12-13T13:31:14.245Z,1.30
2022-12-13T13:33:58.312Z,1.18
2022-12-13T13:37:02.908Z,1.18
2022-12-13T13:39:56.448Z,1.14
2022-12-13T13:42:43.665Z,1.07
2022-12-13T13:45:36.743Z,1.06
2022-12-13T13:48:38.303Z,1.17
2022-12-13T13:51:54.888Z,1.22
2022-12-13T13:55:04.336Z,1.13
2022-12-13T13:58:40.818Z,1.15
2022-12-13T14:01:59.646Z,1.16
2022-12-13T14:05:00.864Z,1.09
2022-12-13T14:08:27.444Z,1.07
2022-12-13T14:11:27.453Z,0.89
2022-12-13T14:14:43.287Z,0.79
2022-12-13T14:17:49.201Z,0.72
2022-12-13T14:21:14.172Z,0.69
2022-12-13T14:24:19.684Z,0.65
2022-12-13T14:27:22.130Z,0.41
2022-12-13T14:30:26.997Z,0.35
2022-12-13T14:33:03.609Z,0.06
2022-12-13T14:36:16.709Z,-0.21
2022-12-13T14:39:24.946Z,-0.24
2022-12-13T14:42:20.790Z,-0.37
2022-12-13T14:45:20.746Z,-0.54
2022-12-13T14:48:04.864Z,-0.71
2022-12-13T14:50:49.771Z,-0.90
2022-12-13T14:53:53.704Z,-0.92
2022-12-13T14:56:54.698Z,-1.16
2022-12-13T14:59:50.606Z,-1.33
2022-12-13T15:02:40.873Z,-1.51
2022-12-13T15:05:50.876Z,-1.65
2022-12-13T15:08:35.654Z,-1.95
2022-12-13T15:11:18.688Z,-1.82
2022-12-13T15:14:07.139Z,-1.91
2022-12-13T15:17:04.389Z,-2.05
2022-12-13T15:19:51.017Z,-2.13
2022-12-13T15:22:29.395Z,-2.35
2022-12-13T15:25:35.455Z,-2.34
2022-12-13T15:28:21.422Z,-2.35
2022-12-13T15:30:58.772Z,-2.46
2022-12-13T15:33:48.615Z,-2.58
2022-12-13T15:36:38.073Z,-2.72
2022-12-13T15:39:31.016Z,-2.79
2022-12-13T15:42:35.773Z,-2.94
2022-12-13T15:45:41.923Z,-2.88
2022-12-13T15:48:35.696Z,-3.09
2022-12-13T15:51:34.877Z,-3.09
2022-12-13T15:54:39.391Z,-3.10
2022-12-13T15:57:58.903Z,-3.14
2022-12-13T16:00:41.032Z,-3.22
2022-12-13T16:03:37.380Z,-3.28
2022-12-13T16:06:23.738Z,-3.34
2022-12-13T16:09:08.026Z,-3.40
2022-12-13T16:12:06.287Z,-3.50
2022-12-13T16:15:20.401Z,-3.50
2022-12-13T16:18:28.503Z,-3.65
2022-12-13T16:21:09.292Z,-3.82
2022-12-13T16:23:54.985Z,-3.77
2022-12-13T16:26:40.739Z,-3.76
2022-12-13T16:29:37.409Z,-3.80
2022-12-13T16:32:21.157Z,-3.73
2022-12-13T16:35:09.188Z,-3.76
2022-12-13T16:37:59.400Z,-3.70
2022-12-13T16:40:44.836Z,-3.72
2022-12-13T16:43:40.553Z,-3.65
2022-12-13T16:47:14.280Z,-3.62
2022-12-13T16:49:38.085Z,-3.59
2022-12-13T16:52:25.610Z,-3.65
2022-12-13T16:55:09.891Z,-3.65
2022-12-13T16:58:01.668Z,-3.68
2022-12-13T17:00:50.661Z,-3.71
2022-12-13T17:03:39.845Z,-3.83
2022-12-13T17:06:19.733Z,-3.75
2022-12-13T17:09:15.398Z,-3.70
2022-12-13T17:11:57.746Z,-3.74
2022-12-13T17:14:44.076Z,-3.68
2022-12-13T17:17:31.167Z,-3.48
2022-12-13T17:20:12.072Z,-3.49
2022-12-13T17:23:04.293Z,-3.58
2022-12-13T17:25:58.368Z,-3.44
2022-12-13T17:28:53.297Z,-3.63
2022-12-13T17:31:40.208Z,-3.71
2022-12-13T17:34:24.685Z,-3.72
2022-12-13T17:37:10.448Z,-3.65
2022-12-13T17:39:51.649Z,-3.74
2022-12-13T17:42:31.720Z,-3.70
2022-12-13T17:45:18.751Z,-3.59
2022-12-13T17:48:23.386Z,-3.66
2022-12-13T17:51:07.574Z,-3.73
2022-12-13T17:53:57.576Z,-3.71
2022-12-13T17:56:39.864Z,-4.00
2022-12-13T17:59:29.942Z,-4.18
2022-12-13T18:02:22.877Z,-4.27
2022-12-13T18:05:07.727Z,-4.38
2022-12-13T18:08:05.437Z,-4.40
2022-12-13T18:11:23.942Z,-4.45
2022-12-13T18:14:19.278Z,-4.47
2022-12-13T18:17:02.182Z,-4.46
2022-12-13T18:19:45.326Z,-4.51
2022-12-13T18:22:39.800Z,-4.49
2022-12-13T18:25:23.733Z,-4.49
2022-12-13T18:28:03.949Z,-4.60
2022-12-13T18:30:46.225Z,-4.69
2022-12-13T18:33:34.619Z,-4.69
2022-12-13T18:36:22.268Z,-4.78
2022-12-13T18:39:15.612Z,-4.90
2022-12-13T18:42:08.343Z,-4.89
2022-12-13T18:44:54.236Z,-4.92
2022-12-13T18:48:12.301Z,-5.08
2022-12-13T18:51:00.834Z,-5.04
2022-12-13T18:53:42.098Z,-5.12
2022-12-13T18:56:46.055Z,-5.23
2022-12-13T18:59:34.048Z,-5.24
2022-12-13T19:02:12.641Z,-5.31
2022-12-13T19:04:57.028Z,-5.37
2022-12-13T19:07:41.535Z,-5.40
2022-12-13T19:10:38.984Z,-5.52
2022-12-13T19:13:25.026Z,-5.53
2022-12-13T19:16:25.164Z,-5.57
2022-12-13T19:19:15.746Z,-5.50
2022-12-13T19:22:04.131Z,-5.62
2022-12-13T19:24:47.007Z,-5.78
2022-12-13T19:27:34.822Z,-5.84
2022-12-13T19:30:24.629Z,-5.81
2022-12-13T19:33:10.760Z,-5.91
2022-12-13T19:35:57.174Z,-5.90
2022-12-13T19:38:46.248Z,-5.99
2022-12-13T19:41:35.098Z,-6.09
2022-12-13T19:44:21.818Z,-6.16
2022-12-13T19:47:21.412Z,-6.20
2022-12-13T19:50:12.004Z,-6.24
2022-12-13T19:53:00.251Z,-6.34
2022-12-13T19:56:12.959Z,-6.38
2022-12-13T19:59:00.378Z,-6.47
2022-12-13T20:01:58.126Z,-6.37
2022-12-13T20:04:52.668Z,-6.37
2022-12-13T20:07:39.491Z,-6.44
2022-12-13T20:10:28.917Z,-6.43
2022-12-13T20:13:13.733Z,-6.41
2022-12-13T20:16:03.368Z,-6.46
2022-12-13T20:18:54.275Z,-6.43
2022-12-13T20:21:38.355Z,-6.48
2022-12-13T20:24:32.260Z,-6.55
2022-12-13T20:27:24.202Z,-6.55
2022-12-13T20:30:27.343Z,-6.56
2022-12-13T20:33:06.614Z,-6.66
2022-12-13T20:36:22.555Z,-6.66
2022-12-13T20:39:06.602Z,-6.66
2022-12-13T20:41:58.543Z,-6.68
2022-12-13T20:45:01.041Z,-6.77
2022-12-13T20:47:51.250Z,-6.74
2022-12-13T20:50:42.699Z,-6.78
2022-12-13T20:53:35.769Z,-6.74
2022-12-13T20:56:23.646Z,-6.83
2022-12-13T20:59:01.661Z,-6.92
2022-12-13T21:02:02.520Z,-7.01
2022-12-13T21:05:00.670Z,-6.94
2022-12-13T21:07:54.500Z,-6.92
2022-12-13T21:10:54.585Z,-7.00
2022-12-13T21:13:37.742Z,-7.13
2022-12-13T21:16:21.723Z,-7.12
2022-12-13T21:19:08.955Z,-7.14
2022-12-13T21:22:06.741Z,-7.27
2022-12-13T21:24:56.641Z,-7.22
2022-12-13T21:27:48.399Z,-7.31
2022-12-13T21:30:44.517Z,-7.29
2022-12-13T21:33:32.997Z,-7.10
2022-12-13T21:36:41.408Z,-7.34
2022-12-13T21:39:24.134Z,-7.45
2022-12-13T21:42:24.544Z,-7.46
2022-12-13T21:45:18.476Z,-7.46
2022-12-13T21:48:05.513Z,-7.52
2022-12-13T21:50:56.626Z,-7.37
2022-12-13T21:53:43.763Z,-7.46
2022-12-13T21:56:39.256Z,-7.52
2022-12-13T21:59:30.918Z,-7.58
2022-12-13T22:02:34.574Z,-7.56
2022-12-13T22:05:14.785Z,-7.54
2022-12-13T22:08:02.458Z,-7.51
2022-12-13T22:10:58.730Z,-7.44
2022-12-13T22:13:59.022Z,-7.37
2022-12-13T22:16:51.428Z,-7.64
2022-12-13T22:19:54.649Z,-7.71
2022-12-13T22:22:39.219Z,-7.64
2022-12-13T22:25:24.969Z,-7.64
2022-12-13T22:27:57.903Z,-7.52
2022-12-13T22:30:43.611Z,-7.30
2022-12-13T22:33:39.590Z,-6.79
2022-12-13T22:36:26.436Z,-6.49
2022-12-13T22:39:16.319Z,-6.31
2022-12-13T22:42:11.375Z,-6.09
2022-12-13T22:44:55.106Z,-6.13
2022-12-13T22:47:50.669Z,-6.12
2022-12-13T22:50:37.711Z,-5.95
2022-12-13T22:53:23.767Z,-5.90
2022-12-13T22:56:33.034Z,-5.81
2022-12-13T22:59:13.825Z,-5.91
2022-12-13T23:02:01.981Z,-5.84
2022-12-13T23:04:59.490Z,-5.88
2022-12-13T23:07:40.867Z,-5.79
2022-12-13T23:10:57.746Z,-5.81
2022-12-13T23:13:55.814Z,-5.73
2022-12-13T23:16:40.826Z,-5.87
2022-12-13T23:22:43.943Z,-5.95
2022-12-13T23:25:33.712Z,-6.03
2022-12-13T23:28:18.980Z,-5.91
2022-12-13T23:31:03.193Z,-6.00
2022-12-13T23:33:42.953Z,-5.85
2022-12-13T23:36:26.644Z,-5.83
2022-12-13T23:39:09.863Z,-5.65
2022-12-13T23:41:59.911Z,-5.64
2022-12-13T23:44:40.251Z,-5.70
2022-12-13T23:47:21.787Z,-5.72
2022-12-13T23:49:59.904Z,-5.83
2022-12-13T23:52:49.329Z,-5.63
2022-12-13T23:55:32.526Z,-5.48
2022-12-13T23:58:13.148Z,-5.49
